臺北飛航情報區 - 掃描席(區管/近場)

METAR RCTP 160630Z 02013KT 9999 FEW010 SCT014 23/18 Q1013 NOSIG RMK A2992=

站台狀態:Online
最後更新:2021-04-16 15:00:01